CheckWX is a tool to help pilots better visualize weather data.  It is not intended as a substitute for an official pre-flight weather briefing.

18:29:53 UTC

EDVK METAR
Kassel-Calden Airport
Kassel, Germany
Current

40 mins ago

EDVK 221750Z 06007KT 9999 SCT013 BKN027 06/03 Q1038
Observed
Feb-22 @ 17:50 UTC
Wind
  • 060° at 7 KTS
Visibility
10,000+ meters
Flight Rules
MVFR
Cloud Levels
  • Scattered at 1,300' AGL
  • Broken at 2,700' AGL
Temperature
C / 43°F
Dewpoint
C / 37°F
Humidity
81%
Altimeter
30.65" Hg
Pressure
1037.91 hPa
Previous

1 hour ago

EDVK 221720Z 03003KT 350V050 9999 FEW014 BKN029 06/04 Q1038
Observed
Feb-22 @ 17:20 UTC
Wind
  • 030° at 3 KTS
Visibility
10,000+ meters
Flight Rules
MVFR
Cloud Levels
  • Few at 1,400' AGL
  • Broken at 2,900' AGL
Temperature
C / 43°F
Dewpoint
C / 39°F
Humidity
87%
Altimeter
30.65" Hg
Pressure
1037.91 hPa
Previous

2 hours ago

EDVK 221650Z 03005KT 9999 SCT032 06/04 Q1038
Observed
Feb-22 @ 16:50 UTC
Wind
  • 030° at 5 KTS
Visibility
10,000+ meters
Flight Rules
VFR
Cloud Levels
  • Scattered at 3,200' AGL
Temperature
C / 43°F
Dewpoint
C / 39°F
Humidity
87%
Altimeter
30.65" Hg
Pressure
1037.91 hPa